sensor_id;sensor_type;location;lat;lon;timestamp;temperature;humidity
19654;DHT22;9975;48.046;7.804;2022-08-21T02:04:14;14.20;99.90
19654;DHT22;9975;48.046;7.804;2022-08-21T02:06:40;14.20;99.90
19654;DHT22;9975;48.046;7.804;2022-08-21T02:09:08;14.20;99.90
19654;DHT22;9975;48.046;7.804;2022-08-21T02:11:35;14.10;99.90
19654;DHT22;9975;48.046;7.804;2022-08-21T02:14:01;14.10;99.90
19654;DHT22;9975;48.046;7.804;2022-08-21T02:16:27;14.00;99.90
19654;DHT22;9975;48.046;7.804;2022-08-21T02:18:52;14.00;99.90
19654;DHT22;9975;48.046;7.804;2022-08-21T02:21:18;14.00;99.90
19654;DHT22;9975;48.046;7.804;2022-08-21T02:23:44;14.10;99.90
19654;DHT22;9975;48.046;7.804;2022-08-21T02:26:11;14.00;99.90
19654;DHT22;9975;48.046;7.804;2022-08-21T02:28:37;14.00;99.90
19654;DHT22;9975;48.046;7.804;2022-08-21T02:31:04;13.90;99.90
19654;DHT22;9975;48.046;7.804;2022-08-21T02:33:30;13.90;99.90
19654;DHT22;9975;48.046;7.804;2022-08-21T02:35:56;14.00;99.90
19654;DHT22;9975;48.046;7.804;2022-08-21T02:38:25;13.90;99.90
19654;DHT22;9975;48.046;7.804;2022-08-21T02:40:52;13.90;99.90
19654;DHT22;9975;48.046;7.804;2022-08-21T02:43:20;13.90;99.90
19654;DHT22;9975;48.046;7.804;2022-08-21T02:45:46;13.90;99.90
19654;DHT22;9975;48.046;7.804;2022-08-21T02:48:16;13.80;99.90
19654;DHT22;9975;48.046;7.804;2022-08-21T02:50:45;13.80;99.90
19654;DHT22;9975;48.046;7.804;2022-08-21T02:53:12;13.80;99.90
19654;DHT22;9975;48.046;7.804;2022-08-21T02:55:45;13.80;99.90
19654;DHT22;9975;48.046;7.804;2022-08-21T02:58:13;13.80;99.90
19654;DHT22;9975;48.046;7.804;2022-08-21T03:00:39;13.70;99.90
19654;DHT22;9975;48.046;7.804;2022-08-21T03:03:05;13.70;99.90
19654;DHT22;9975;48.046;7.804;2022-08-21T03:05:34;13.70;99.90
19654;DHT22;9975;48.046;7.804;2022-08-21T03:08:01;13.70;99.90
19654;DHT22;9975;48.046;7.804;2022-08-21T03:10:28;13.70;99.90
19654;DHT22;9975;48.046;7.804;2022-08-21T03:12:54;13.70;99.90
19654;DHT22;9975;48.046;7.804;2022-08-21T03:15:22;13.70;99.90
19654;DHT22;9975;48.046;7.804;2022-08-21T03:17:49;13.60;99.90
19654;DHT22;9975;48.046;7.804;2022-08-21T03:20:17;13.60;99.90
19654;DHT22;9975;48.046;7.804;2022-08-21T03:22:43;13.50;99.90
19654;DHT22;9975;48.046;7.804;2022-08-21T03:25:10;13.50;99.90
19654;DHT22;9975;48.046;7.804;2022-08-21T03:27:36;13.40;99.90
19654;DHT22;9975;48.046;7.804;2022-08-21T03:30:04;13.40;99.90
19654;DHT22;9975;48.046;7.804;2022-08-21T03:32:30;13.50;99.90
19654;DHT22;9975;48.046;7.804;2022-08-21T03:34:57;13.50;99.90
19654;DHT22;9975;48.046;7.804;2022-08-21T03:37:23;13.40;99.90
19654;DHT22;9975;48.046;7.804;2022-08-21T03:39:50;13.40;99.90
19654;DHT22;9975;48.046;7.804;2022-08-21T03:42:16;13.40;99.90
19654;DHT22;9975;48.046;7.804;2022-08-21T03:44:41;13.40;99.90
19654;DHT22;9975;48.046;7.804;2022-08-21T03:47:08;13.40;99.90
19654;DHT22;9975;48.046;7.804;2022-08-21T03:49:35;13.40;99.90
19654;DHT22;9975;48.046;7.804;2022-08-21T03:52:00;13.40;99.90
19654;DHT22;9975;48.046;7.804;2022-08-21T03:54:26;13.40;99.90
19654;DHT22;9975;48.046;7.804;2022-08-21T03:56:52;13.40;99.90
19654;DHT22;9975;48.046;7.804;2022-08-21T03:59:17;13.30;99.90
19654;DHT22;9975;48.046;7.804;2022-08-21T04:01:58;13.30;99.90
19654;DHT22;9975;48.046;7.804;2022-08-21T04:04:25;13.30;99.90
19654;DHT22;9975;48.046;7.804;2022-08-21T04:06:51;13.40;99.90
19654;DHT22;9975;48.046;7.804;2022-08-21T04:09:17;13.30;99.90
19654;DHT22;9975;48.046;7.804;2022-08-21T04:11:43;13.30;99.90
19654;DHT22;9975;48.046;7.804;2022-08-21T04:14:09;13.10;99.90
19654;DHT22;9975;48.046;7.804;2022-08-21T04:16:34;13.10;99.90
19654;DHT22;9975;48.046;7.804;2022-08-21T04:19:00;13.00;99.90
19654;DHT22;9975;48.046;7.804;2022-08-21T04:21:26;13.00;99.90
19654;DHT22;9975;48.046;7.804;2022-08-21T04:23:54;12.90;99.90
19654;DHT22;9975;48.046;7.804;2022-08-21T04:26:20;12.80;99.90
19654;DHT22;9975;48.046;7.804;2022-08-21T04:28:46;12.80;99.90
19654;DHT22;9975;48.046;7.804;2022-08-21T04:31:11;12.90;99.90
19654;DHT22;9975;48.046;7.804;2022-08-21T04:33:37;12.90;99.90
19654;DHT22;9975;48.046;7.804;2022-08-21T04:36:03;12.90;99.90
19654;DHT22;9975;48.046;7.804;2022-08-21T04:38:29;12.80;99.90
19654;DHT22;9975;48.046;7.804;2022-08-21T04:40:57;12.90;99.90
19654;DHT22;9975;48.046;7.804;2022-08-21T04:43:23;12.90;99.90
19654;DHT22;9975;48.046;7.804;2022-08-21T04:45:50;12.90;99.90
19654;DHT22;9975;48.046;7.804;2022-08-21T04:48:19;12.80;99.90
19654;DHT22;9975;48.046;7.804;2022-08-21T04:53:30;12.90;99.90
19654;DHT22;9975;48.046;7.804;2022-08-21T04:56:01;13.00;99.90
19654;DHT22;9975;48.046;7.804;2022-08-21T04:58:28;13.00;99.90
19654;DHT22;9975;48.046;7.804;2022-08-21T05:00:56;13.00;99.90
19654;DHT22;9975;48.046;7.804;2022-08-21T05:03:23;13.00;99.90
19654;DHT22;9975;48.046;7.804;2022-08-21T05:05:49;13.10;99.90
19654;DHT22;9975;48.046;7.804;2022-08-21T05:08:17;13.20;99.90
19654;DHT22;9975;48.046;7.804;2022-08-21T05:10:44;13.20;99.90
19654;DHT22;9975;48.046;7.804;2022-08-21T05:13:11;13.30;99.90
19654;DHT22;9975;48.046;7.804;2022-08-21T05:15:38;13.30;99.90
19654;DHT22;9975;48.046;7.804;2022-08-21T05:18:04;13.30;99.90
19654;DHT22;9975;48.046;7.804;2022-08-21T05:20:30;13.30;99.90
19654;DHT22;9975;48.046;7.804;2022-08-21T05:22:56;13.40;99.90
19654;DHT22;9975;48.046;7.804;2022-08-21T05:25:22;13.40;99.90
19654;DHT22;9975;48.046;7.804;2022-08-21T05:27:47;13.40;99.90
19654;DHT22;9975;48.046;7.804;2022-08-21T05:30:13;13.40;99.90
19654;DHT22;9975;48.046;7.804;2022-08-21T05:32:39;13.40;99.90
19654;DHT22;9975;48.046;7.804;2022-08-21T05:35:06;13.50;99.90
19654;DHT22;9975;48.046;7.804;2022-08-21T05:37:33;13.50;99.90
19654;DHT22;9975;48.046;7.804;2022-08-21T05:40:00;13.60;99.90
19654;DHT22;9975;48.046;7.804;2022-08-21T05:42:38;13.60;99.90
19654;DHT22;9975;48.046;7.804;2022-08-21T05:45:03;13.70;99.90
19654;DHT22;9975;48.046;7.804;2022-08-21T05:47:29;13.70;99.90
19654;DHT22;9975;48.046;7.804;2022-08-21T05:49:55;13.80;99.90
19654;DHT22;9975;48.046;7.804;2022-08-21T05:52:21;13.90;99.90
19654;DHT22;9975;48.046;7.804;2022-08-21T05:54:47;14.00;99.90
19654;DHT22;9975;48.046;7.804;2022-08-21T05:57:12;14.00;99.90
19654;DHT22;9975;48.046;7.804;2022-08-21T05:59:38;14.10;99.90
19654;DHT22;9975;48.046;7.804;2022-08-21T06:02:04;14.10;99.90
19654;DHT22;9975;48.046;7.804;2022-08-21T06:04:29;14.10;99.90
19654;DHT22;9975;48.046;7.804;2022-08-21T06:06:55;14.10;99.90
19654;DHT22;9975;48.046;7.804;2022-08-21T06:09:21;14.20;99.90
19654;DHT22;9975;48.046;7.804;2022-08-21T06:11:46;14.20;99.90
19654;DHT22;9975;48.046;7.804;2022-08-21T06:14:16;14.30;99.90
19654;DHT22;9975;48.046;7.804;2022-08-21T06:16:42;14.30;99.90
19654;DHT22;9975;48.046;7.804;2022-08-21T06:19:07;14.30;99.90
19654;DHT22;9975;48.046;7.804;2022-08-21T06:21:33;14.40;99.90
19654;DHT22;9975;48.046;7.804;2022-08-21T06:23:59;14.50;99.90
19654;DHT22;9975;48.046;7.804;2022-08-21T06:26:24;14.50;99.90
19654;DHT22;9975;48.046;7.804;2022-08-21T06:28:50;14.60;99.90
19654;DHT22;9975;48.046;7.804;2022-08-21T06:31:19;14.70;99.90
19654;DHT22;9975;48.046;7.804;2022-08-21T06:33:45;14.80;99.90
19654;DHT22;9975;48.046;7.804;2022-08-21T06:36:11;14.80;99.90
19654;DHT22;9975;48.046;7.804;2022-08-21T06:38:37;15.00;99.90
19654;DHT22;9975;48.046;7.804;2022-08-21T06:41:04;15.10;99.90
19654;DHT22;9975;48.046;7.804;2022-08-21T06:43:30;15.20;99.90
19654;DHT22;9975;48.046;7.804;2022-08-21T06:45:56;15.30;99.90
19654;DHT22;9975;48.046;7.804;2022-08-21T06:48:22;15.40;99.90
19654;DHT22;9975;48.046;7.804;2022-08-21T06:50:47;15.50;99.90
19654;DHT22;9975;48.046;7.804;2022-08-21T06:53:16;15.70;99.90
19654;DHT22;9975;48.046;7.804;2022-08-21T06:55:43;15.80;99.90
19654;DHT22;9975;48.046;7.804;2022-08-21T06:58:09;16.00;99.90
19654;DHT22;9975;48.046;7.804;2022-08-21T07:00:39;16.10;99.90
19654;DHT22;9975;48.046;7.804;2022-08-21T07:03:05;16.20;99.90
19654;DHT22;9975;48.046;7.804;2022-08-21T07:05:31;16.30;99.90
19654;DHT22;9975;48.046;7.804;2022-08-21T07:07:57;16.40;99.90
19654;DHT22;9975;48.046;7.804;2022-08-21T07:10:24;16.50;99.90
19654;DHT22;9975;48.046;7.804;2022-08-21T07:12:50;16.60;99.90
19654;DHT22;9975;48.046;7.804;2022-08-21T07:15:16;16.80;99.90
19654;DHT22;9975;48.046;7.804;2022-08-21T07:17:42;16.90;99.90
19654;DHT22;9975;48.046;7.804;2022-08-21T07:20:08;17.00;99.90
19654;DHT22;9975;48.046;7.804;2022-08-21T07:22:35;17.20;99.90
19654;DHT22;9975;48.046;7.804;2022-08-21T07:25:04;17.30;99.90
19654;DHT22;9975;48.046;7.804;2022-08-21T07:27:29;17.40;99.90
19654;DHT22;9975;48.046;7.804;2022-08-21T07:29:56;17.50;99.90
19654;DHT22;9975;48.046;7.804;2022-08-21T07:32:22;17.60;99.90
19654;DHT22;9975;48.046;7.804;2022-08-21T07:34:48;17.80;99.90
19654;DHT22;9975;48.046;7.804;2022-08-21T07:37:13;18.00;99.90
19654;DHT22;9975;48.046;7.804;2022-08-21T07:39:39;18.10;99.90
19654;DHT22;9975;48.046;7.804;2022-08-21T07:42:05;18.20;99.90
19654;DHT22;9975;48.046;7.804;2022-08-21T07:44:35;18.30;99.90
19654;DHT22;9975;48.046;7.804;2022-08-21T07:47:01;18.40;99.90
19654;DHT22;9975;48.046;7.804;2022-08-21T07:49:27;18.50;99.90
19654;DHT22;9975;48.046;7.804;2022-08-21T07:51:53;18.60;99.90
19654;DHT22;9975;48.046;7.804;2022-08-21T07:54:19;18.70;99.90
19654;DHT22;9975;48.046;7.804;2022-08-21T07:56:44;18.70;99.90
19654;DHT22;9975;48.046;7.804;2022-08-21T07:59:11;18.90;99.90
19654;DHT22;9975;48.046;7.804;2022-08-21T08:01:36;19.10;99.90
19654;DHT22;9975;48.046;7.804;2022-08-21T08:04:02;19.20;99.90
19654;DHT22;9975;48.046;7.804;2022-08-21T08:06:28;19.40;99.90
19654;DHT22;9975;48.046;7.804;2022-08-21T08:08:54;19.70;99.90
19654;DHT22;9975;48.046;7.804;2022-08-21T08:11:20;19.90;99.90
19654;DHT22;9975;48.046;7.804;2022-08-21T08:13:47;20.10;99.90
19654;DHT22;9975;48.046;7.804;2022-08-21T08:16:14;20.30;99.90
19654;DHT22;9975;48.046;7.804;2022-08-21T08:18:40;20.50;99.90
19654;DHT22;9975;48.046;7.804;2022-08-21T08:21:08;20.60;99.90
19654;DHT22;9975;48.046;7.804;2022-08-21T08:23:34;20.90;99.90
19654;DHT22;9975;48.046;7.804;2022-08-21T08:25:59;21.10;99.90
19654;DHT22;9975;48.046;7.804;2022-08-21T08:28:25;21.30;99.90
19654;DHT22;9975;48.046;7.804;2022-08-21T08:30:52;21.50;99.90
19654;DHT22;9975;48.046;7.804;2022-08-21T08:33:18;21.60;99.90
19654;DHT22;9975;48.046;7.804;2022-08-21T08:35:46;21.70;99.90
19654;DHT22;9975;48.046;7.804;2022-08-21T08:38:13;21.90;99.90
19654;DHT22;9975;48.046;7.804;2022-08-21T08:41:15;22.20;98.10
19654;DHT22;9975;48.046;7.804;2022-08-21T08:43:48;22.10;97.40
19654;DHT22;9975;48.046;7.804;2022-08-21T08:46:16;21.90;97.30
19654;DHT22;9975;48.046;7.804;2022-08-21T08:51:23;22.60;95.00
19654;DHT22;9975;48.046;7.804;2022-08-21T08:54:03;22.80;93.50
19654;DHT22;9975;48.046;7.804;2022-08-21T08:56:32;23.00;92.80
19654;DHT22;9975;48.046;7.804;2022-08-21T08:59:11;23.30;91.50
19654;DHT22;9975;48.046;7.804;2022-08-21T09:01:38;23.60;90.40
19654;DHT22;9975;48.046;7.804;2022-08-21T09:04:04;23.90;90.30
19654;DHT22;9975;48.046;7.804;2022-08-21T09:07:00;24.10;90.20
19654;DHT22;9975;48.046;7.804;2022-08-21T09:09:50;24.30;87.00
19654;DHT22;9975;48.046;7.804;2022-08-21T09:12:29;24.40;87.10
19654;DHT22;9975;48.046;7.804;2022-08-21T09:15:03;24.40;83.90
19654;DHT22;9975;48.046;7.804;2022-08-21T09:18:19;24.70;82.80
19654;DHT22;9975;48.046;7.804;2022-08-21T09:21:03;24.80;81.10
19654;DHT22;9975;48.046;7.804;2022-08-21T09:26:18;25.00;77.10
19654;DHT22;9975;48.046;7.804;2022-08-21T09:28:45;25.20;74.30
19654;DHT22;9975;48.046;7.804;2022-08-21T09:31:29;25.10;74.80
19654;DHT22;9975;48.046;7.804;2022-08-21T09:34:07;25.50;76.10
19654;DHT22;9975;48.046;7.804;2022-08-21T09:36:43;25.90;74.40
19654;DHT22;9975;48.046;7.804;2022-08-21T09:39:11;25.80;72.10
19654;DHT22;9975;48.046;7.804;2022-08-21T09:41:38;26.10;71.00
19654;DHT22;9975;48.046;7.804;2022-08-21T09:44:06;26.30;68.90
19654;DHT22;9975;48.046;7.804;2022-08-21T09:46:32;26.50;68.20
19654;DHT22;9975;48.046;7.804;2022-08-21T09:49:01;26.80;68.30
19654;DHT22;9975;48.046;7.804;2022-08-21T09:51:34;27.10;66.20
19654;DHT22;9975;48.046;7.804;2022-08-21T09:56:55;27.40;64.10
19654;DHT22;9975;48.046;7.804;2022-08-21T09:59:40;27.60;63.80
19654;DHT22;9975;48.046;7.804;2022-08-21T10:02:26;27.80;62.50
19654;DHT22;9975;48.046;7.804;2022-08-21T10:04:55;27.80;59.90
19654;DHT22;9975;48.046;7.804;2022-08-21T10:07:23;28.10;59.80
19654;DHT22;9975;48.046;7.804;2022-08-21T10:10:06;28.20;59.20
19654;DHT22;9975;48.046;7.804;2022-08-21T10:12:39;28.40;58.40
19654;DHT22;9975;48.046;7.804;2022-08-21T10:17:48;27.70;58.30
19654;DHT22;9975;48.046;7.804;2022-08-21T10:20:25;27.90;58.20
19654;DHT22;9975;48.046;7.804;2022-08-21T10:25:57;27.50;58.30
19654;DHT22;9975;48.046;7.804;2022-08-21T10:31:21;27.90;57.10
19654;DHT22;9975;48.046;7.804;2022-08-21T10:39:40;28.60;52.90
19654;DHT22;9975;48.046;7.804;2022-08-21T10:42:24;28.50;53.70
19654;DHT22;9975;48.046;7.804;2022-08-21T10:47:32;28.90;52.90
19654;DHT22;9975;48.046;7.804;2022-08-21T10:55:16;29.10;48.50
19654;DHT22;9975;48.046;7.804;2022-08-21T10:58:01;29.10;47.40
19654;DHT22;9975;48.046;7.804;2022-08-21T11:00:56;29.20;46.60
19654;DHT22;9975;48.046;7.804;2022-08-21T11:05:53;30.10;46.70
19654;DHT22;9975;48.046;7.804;2022-08-21T11:08:31;30.30;45.80
19654;DHT22;9975;48.046;7.804;2022-08-21T11:11:01;30.40;44.10
19654;DHT22;9975;48.046;7.804;2022-08-21T11:19:05;30.00;42.80
19654;DHT22;9975;48.046;7.804;2022-08-21T11:21:56;30.00;43.70
19654;DHT22;9975;48.046;7.804;2022-08-21T11:27:21;30.40;41.70
19654;DHT22;9975;48.046;7.804;2022-08-21T11:29:54;30.30;43.10
19654;DHT22;9975;48.046;7.804;2022-08-21T11:43:48;31.10;40.60
19654;DHT22;9975;48.046;7.804;2022-08-21T11:54:41;29.70;39.40
19654;DHT22;9975;48.046;7.804;2022-08-21T12:02:56;30.40;42.00
19654;DHT22;9975;48.046;7.804;2022-08-21T12:05:29;30.70;39.30
19654;DHT22;9975;48.046;7.804;2022-08-21T12:08:07;31.30;39.60
19654;DHT22;9975;48.046;7.804;2022-08-21T12:11:22;31.30;39.80
19654;DHT22;9975;48.046;7.804;2022-08-21T12:13:29;31.60;39.00
19654;DHT22;9975;48.046;7.804;2022-08-21T12:16:06;31.60;38.80
19654;DHT22;9975;48.046;7.804;2022-08-21T12:18:32;31.30;38.10
19654;DHT22;9975;48.046;7.804;2022-08-21T12:21:03;31.40;37.70
19654;DHT22;9975;48.046;7.804;2022-08-21T12:24:03;30.80;37.80
19654;DHT22;9975;48.046;7.804;2022-08-21T12:29:25;31.00;39.20
19654;DHT22;9975;48.046;7.804;2022-08-21T12:34:38;31.50;39.80
19654;DHT22;9975;48.046;7.804;2022-08-21T12:37:33;32.10;36.40
19654;DHT22;9975;48.046;7.804;2022-08-21T12:40:04;32.50;36.00
19654;DHT22;9975;48.046;7.804;2022-08-21T12:42:41;32.70;35.40
19654;DHT22;9975;48.046;7.804;2022-08-21T12:45:42;32.40;34.60
19654;DHT22;9975;48.046;7.804;2022-08-21T12:48:26;32.70;35.40
19654;DHT22;9975;48.046;7.804;2022-08-21T12:50:57;32.90;34.70
19654;DHT22;9975;48.046;7.804;2022-08-21T12:56:07;32.50;35.10
19654;DHT22;9975;48.046;7.804;2022-08-21T12:58:34;32.20;34.40
19654;DHT22;9975;48.046;7.804;2022-08-21T13:01:13;31.90;35.60
19654;DHT22;9975;48.046;7.804;2022-08-21T13:03:42;31.70;34.60
19654;DHT22;9975;48.046;7.804;2022-08-21T13:06:16;31.80;35.80
19654;DHT22;9975;48.046;7.804;2022-08-21T13:08:43;31.90;38.30
19654;DHT22;9975;48.046;7.804;2022-08-21T13:11:10;32.20;35.00
19654;DHT22;9975;48.046;7.804;2022-08-21T13:13:39;32.50;34.60
19654;DHT22;9975;48.046;7.804;2022-08-21T13:16:07;32.40;34.80
19654;DHT22;9975;48.046;7.804;2022-08-21T13:18:36;32.00;34.00
19654;DHT22;9975;48.046;7.804;2022-08-21T13:21:11;31.80;34.80
19654;DHT22;9975;48.046;7.804;2022-08-21T13:23:38;31.40;35.10
19654;DHT22;9975;48.046;7.804;2022-08-21T13:26:14;31.10;35.50
19654;DHT22;9975;48.046;7.804;2022-08-21T13:28:40;31.50;36.30
19654;DHT22;9975;48.046;7.804;2022-08-21T13:31:09;31.70;35.50
19654;DHT22;9975;48.046;7.804;2022-08-21T13:33:36;32.00;35.30
19654;DHT22;9975;48.046;7.804;2022-08-21T13:36:14;32.40;34.30
19654;DHT22;9975;48.046;7.804;2022-08-21T13:38:42;31.80;35.00
19654;DHT22;9975;48.046;7.804;2022-08-21T13:43:46;32.60;35.20
19654;DHT22;9975;48.046;7.804;2022-08-21T13:46:13;32.80;34.20
19654;DHT22;9975;48.046;7.804;2022-08-21T13:48:41;33.20;33.00
19654;DHT22;9975;48.046;7.804;2022-08-21T13:51:08;33.20;34.10
19654;DHT22;9975;48.046;7.804;2022-08-21T13:56:06;33.50;31.50
19654;DHT22;9975;48.046;7.804;2022-08-21T13:58:42;33.50;31.90
19654;DHT22;9975;48.046;7.804;2022-08-21T14:03:52;32.40;33.20
19654;DHT22;9975;48.046;7.804;2022-08-21T14:06:22;32.80;33.20
19654;DHT22;9975;48.046;7.804;2022-08-21T14:08:57;32.10;32.90
19654;DHT22;9975;48.046;7.804;2022-08-21T14:11:25;32.20;32.90
19654;DHT22;9975;48.046;7.804;2022-08-21T14:14:28;32.30;32.90
19654;DHT22;9975;48.046;7.804;2022-08-21T14:16:58;32.10;33.60
19654;DHT22;9975;48.046;7.804;2022-08-21T14:19:39;32.30;33.60
19654;DHT22;9975;48.046;7.804;2022-08-21T14:22:32;32.80;33.50
19654;DHT22;9975;48.046;7.804;2022-08-21T14:25:08;33.20;31.70
19654;DHT22;9975;48.046;7.804;2022-08-21T14:30:32;33.20;32.20
19654;DHT22;9975;48.046;7.804;2022-08-21T14:32:59;33.50;31.40
19654;DHT22;9975;48.046;7.804;2022-08-21T14:35:25;32.80;30.90
19654;DHT22;9975;48.046;7.804;2022-08-21T14:37:52;32.40;32.10
19654;DHT22;9975;48.046;7.804;2022-08-21T14:40:18;32.30;33.00
19654;DHT22;9975;48.046;7.804;2022-08-21T14:42:45;32.20;32.50
19654;DHT22;9975;48.046;7.804;2022-08-21T14:45:27;31.80;32.60
19654;DHT22;9975;48.046;7.804;2022-08-21T14:47:54;32.20;32.10
19654;DHT22;9975;48.046;7.804;2022-08-21T14:50:20;32.50;31.50
19654;DHT22;9975;48.046;7.804;2022-08-21T14:52:46;32.90;30.50
19654;DHT22;9975;48.046;7.804;2022-08-21T14:55:13;32.70;30.40
19654;DHT22;9975;48.046;7.804;2022-08-21T14:57:47;32.40;31.30
19654;DHT22;9975;48.046;7.804;2022-08-21T15:00:15;32.70;31.50
19654;DHT22;9975;48.046;7.804;2022-08-21T15:02:42;32.70;30.60
19654;DHT22;9975;48.046;7.804;2022-08-21T15:05:09;32.90;31.20
19654;DHT22;9975;48.046;7.804;2022-08-21T15:07:34;33.10;31.00
19654;DHT22;9975;48.046;7.804;2022-08-21T15:10:00;33.00;31.70
19654;DHT22;9975;48.046;7.804;2022-08-21T15:12:27;33.20;31.60
19654;DHT22;9975;48.046;7.804;2022-08-21T15:14:52;33.40;31.40
19654;DHT22;9975;48.046;7.804;2022-08-21T15:17:18;32.70;29.80
19654;DHT22;9975;48.046;7.804;2022-08-21T15:19:44;32.90;29.90
19654;DHT22;9975;48.046;7.804;2022-08-21T15:22:10;32.90;29.80
19654;DHT22;9975;48.046;7.804;2022-08-21T15:24:36;32.60;30.10
19654;DHT22;9975;48.046;7.804;2022-08-21T15:27:03;32.50;30.20
19654;DHT22;9975;48.046;7.804;2022-08-21T15:29:30;32.20;30.40
19654;DHT22;9975;48.046;7.804;2022-08-21T15:32:01;32.20;31.80
19654;DHT22;9975;48.046;7.804;2022-08-21T15:34:29;32.30;31.50
19654;DHT22;9975;48.046;7.804;2022-08-21T15:37:16;32.20;31.80
19654;DHT22;9975;48.046;7.804;2022-08-21T15:39:42;32.40;32.80
19654;DHT22;9975;48.046;7.804;2022-08-21T15:42:08;32.50;31.70
19654;DHT22;9975;48.046;7.804;2022-08-21T15:44:34;32.40;31.90
19654;DHT22;9975;48.046;7.804;2022-08-21T15:47:00;32.10;31.40
19654;DHT22;9975;48.046;7.804;2022-08-21T15:49:25;32.20;31.80
19654;DHT22;9975;48.046;7.804;2022-08-21T15:51:51;32.30;32.90
19654;DHT22;9975;48.046;7.804;2022-08-21T15:54:17;32.40;32.10
19654;DHT22;9975;48.046;7.804;2022-08-21T15:56:53;32.40;31.60
19654;DHT22;9975;48.046;7.804;2022-08-21T15:59:21;32.30;31.40
19654;DHT22;9975;48.046;7.804;2022-08-21T16:01:49;32.20;31.50
19654;DHT22;9975;48.046;7.804;2022-08-21T16:04:25;32.20;31.10
19654;DHT22;9975;48.046;7.804;2022-08-21T16:06:51;32.10;31.20
19654;DHT22;9975;48.046;7.804;2022-08-21T16:09:17;32.00;31.50
19654;DHT22;9975;48.046;7.804;2022-08-21T16:11:43;32.00;31.40
19654;DHT22;9975;48.046;7.804;2022-08-21T16:14:12;31.90;31.30
19654;DHT22;9975;48.046;7.804;2022-08-21T16:16:37;31.80;31.30
19654;DHT22;9975;48.046;7.804;2022-08-21T16:19:03;31.80;31.50
19654;DHT22;9975;48.046;7.804;2022-08-21T16:21:31;31.90;32.20
19654;DHT22;9975;48.046;7.804;2022-08-21T16:23:57;31.40;31.20
19654;DHT22;9975;48.046;7.804;2022-08-21T16:26:23;31.40;31.30
19654;DHT22;9975;48.046;7.804;2022-08-21T16:28:51;31.50;31.70
19654;DHT22;9975;48.046;7.804;2022-08-21T16:31:17;31.30;31.20
19654;DHT22;9975;48.046;7.804;2022-08-21T16:33:47;31.10;31.80
19654;DHT22;9975;48.046;7.804;2022-08-21T16:36:14;31.40;32.40
19654;DHT22;9975;48.046;7.804;2022-08-21T16:38:40;31.40;31.60
19654;DHT22;9975;48.046;7.804;2022-08-21T16:41:10;31.50;31.80
19654;DHT22;9975;48.046;7.804;2022-08-21T16:43:38;31.50;31.10
19654;DHT22;9975;48.046;7.804;2022-08-21T16:46:04;31.50;31.50
19654;DHT22;9975;48.046;7.804;2022-08-21T16:48:30;31.50;31.60
19654;DHT22;9975;48.046;7.804;2022-08-21T16:50:56;31.50;31.00
19654;DHT22;9975;48.046;7.804;2022-08-21T16:53:22;31.60;32.10
19654;DHT22;9975;48.046;7.804;2022-08-21T16:55:50;31.50;30.00
19654;DHT22;9975;48.046;7.804;2022-08-21T16:58:24;31.40;30.30
19654;DHT22;9975;48.046;7.804;2022-08-21T17:00:50;31.30;30.20
19654;DHT22;9975;48.046;7.804;2022-08-21T17:03:18;31.20;30.20
19654;DHT22;9975;48.046;7.804;2022-08-21T17:05:46;30.90;31.20
19654;DHT22;9975;48.046;7.804;2022-08-21T17:08:18;30.70;31.20
19654;DHT22;9975;48.046;7.804;2022-08-21T17:10:46;30.50;31.00
19654;DHT22;9975;48.046;7.804;2022-08-21T17:13:13;30.10;31.40
19654;DHT22;9975;48.046;7.804;2022-08-21T17:15:39;29.80;32.70
19654;DHT22;9975;48.046;7.804;2022-08-21T17:18:07;29.70;33.00
19654;DHT22;9975;48.046;7.804;2022-08-21T17:20:34;29.50;32.10
19654;DHT22;9975;48.046;7.804;2022-08-21T17:22:59;29.10;32.80
19654;DHT22;9975;48.046;7.804;2022-08-21T17:25:25;28.80;32.40
19654;DHT22;9975;48.046;7.804;2022-08-21T17:27:52;28.60;32.70
19654;DHT22;9975;48.046;7.804;2022-08-21T17:30:19;28.50;33.30
19654;DHT22;9975;48.046;7.804;2022-08-21T17:32:45;28.40;33.80
19654;DHT22;9975;48.046;7.804;2022-08-21T17:35:13;28.20;33.20
19654;DHT22;9975;48.046;7.804;2022-08-21T17:37:39;28.10;33.20
19654;DHT22;9975;48.046;7.804;2022-08-21T17:40:07;27.90;33.10
19654;DHT22;9975;48.046;7.804;2022-08-21T17:42:35;27.90;33.10
19654;DHT22;9975;48.046;7.804;2022-08-21T17:45:02;27.80;34.00
19654;DHT22;9975;48.046;7.804;2022-08-21T17:47:28;27.60;32.90
19654;DHT22;9975;48.046;7.804;2022-08-21T17:49:53;27.40;33.00
19654;DHT22;9975;48.046;7.804;2022-08-21T17:52:19;27.50;33.60
19654;DHT22;9975;48.046;7.804;2022-08-21T17:54:45;27.40;33.60
19654;DHT22;9975;48.046;7.804;2022-08-21T17:57:18;27.30;33.90
19654;DHT22;9975;48.046;7.804;2022-08-21T17:59:44;27.20;34.70
19654;DHT22;9975;48.046;7.804;2022-08-21T18:02:12;27.20;34.30
19654;DHT22;9975;48.046;7.804;2022-08-21T18:04:37;27.20;33.90
19654;DHT22;9975;48.046;7.804;2022-08-21T18:07:03;27.10;33.80
19654;DHT22;9975;48.046;7.804;2022-08-21T18:09:29;27.00;34.00
19654;DHT22;9975;48.046;7.804;2022-08-21T18:11:56;26.90;34.10
19654;DHT22;9975;48.046;7.804;2022-08-21T18:14:29;27.00;34.20
19654;DHT22;9975;48.046;7.804;2022-08-21T18:16:57;26.90;34.10
19654;DHT22;9975;48.046;7.804;2022-08-21T18:22:45;26.90;41.10
19654;DHT22;9975;48.046;7.804;2022-08-21T18:25:11;26.80;42.20
19654;DHT22;9975;48.046;7.804;2022-08-21T18:27:37;26.70;42.10
19654;DHT22;9975;48.046;7.804;2022-08-21T18:30:04;26.50;43.00
19654;DHT22;9975;48.046;7.804;2022-08-21T18:32:30;26.40;42.60
19654;DHT22;9975;48.046;7.804;2022-08-21T18:34:56;26.30;42.20
19654;DHT22;9975;48.046;7.804;2022-08-21T18:37:22;26.10;42.70
19654;DHT22;9975;48.046;7.804;2022-08-21T18:39:48;26.00;42.60
19654;DHT22;9975;48.046;7.804;2022-08-21T18:42:15;25.80;43.70
19654;DHT22;9975;48.046;7.804;2022-08-21T18:44:47;25.60;44.50
19654;DHT22;9975;48.046;7.804;2022-08-21T18:47:21;25.60;44.90
19654;DHT22;9975;48.046;7.804;2022-08-21T18:49:48;25.50;45.20
19654;DHT22;9975;48.046;7.804;2022-08-21T18:52:14;25.30;46.70
19654;DHT22;9975;48.046;7.804;2022-08-21T18:54:40;25.10;48.30
19654;DHT22;9975;48.046;7.804;2022-08-21T18:57:06;25.00;50.10
19654;DHT22;9975;48.046;7.804;2022-08-21T18:59:32;24.90;50.70
19654;DHT22;9975;48.046;7.804;2022-08-21T19:01:58;24.70;52.50
19654;DHT22;9975;48.046;7.804;2022-08-21T19:04:25;24.50;52.30
19654;DHT22;9975;48.046;7.804;2022-08-21T19:06:51;24.50;53.20
19654;DHT22;9975;48.046;7.804;2022-08-21T19:09:17;24.40;53.60
19654;DHT22;9975;48.046;7.804;2022-08-21T19:11:44;24.30;54.10
19654;DHT22;9975;48.046;7.804;2022-08-21T19:14:13;24.20;54.00
19654;DHT22;9975;48.046;7.804;2022-08-21T19:16:40;24.10;54.20
19654;DHT22;9975;48.046;7.804;2022-08-21T19:19:07;23.90;54.40
19654;DHT22;9975;48.046;7.804;2022-08-21T19:21:34;23.70;55.00
19654;DHT22;9975;48.046;7.804;2022-08-21T19:24:00;23.60;55.10
19654;DHT22;9975;48.046;7.804;2022-08-21T19:26:27;23.40;55.40
19654;DHT22;9975;48.046;7.804;2022-08-21T19:28:56;23.40;56.10
19654;DHT22;9975;48.046;7.804;2022-08-21T19:31:28;23.30;56.90